Stadt Schwerin — V2OK — position and weather

sailwx.info

Track history (hours):
 
Tides and Currents Weather Stations Pressure Air Temp Water Temp Dewpoint Dewpoint Depression Visibility Wind Speed Wind Dir Waves Ship Positions

Stadt Schwerin

Last reported at 2014-Sep-13 01:05 UTC. Time now 2014-Sep-15 02:08 UTC.
Position N 36°40' E 012°40'.

Length 158 m; draft 9.6 m.

Type: Cargo ship. MMSI: 304010999.

Date/timePositionNaut miles runAvg speedWind from/ knotsBaromVisibWave heightAir tempDewpointWater temp
2014-Sep-13 01:05N 36°40' E 012°40'913.1
2014-Sep-13 00:23N 36°35' E 012°50'1113.3
2014-Sep-12 23:33N 36°29' E 013°01'1713.6
2014-Sep-12 22:20N 36°19' E 013°18'1013.4
2014-Sep-12 21:33N 36°14' E 013°29'1413.7
2014-Sep-12 20:33N 36°07' E 013°44'1414.0
2014-Sep-12 19:33N 35°58' E 013°58'1513.7
2014-Sep-12 18:26N 35°48' E 014°12'1213.4
2014-Sep-12 17:33N 35°41' E 014°24'10 8.6
2014-Sep-12 16:20N 35°49' E 014°32'0 0.4
2014-Sep-12 15:31N 35°49' E 014°33'0 0.0
2014-Sep-12 14:19N 35°49' E 014°33'0 0.0
2014-Sep-12 13:30N 35°49' E 014°33'0 0.0
2014-Sep-12 11:33N 35°49' E 014°33'0 0.0
2014-Sep-12 07:33N 35°49' E 014°33'0 0.0
2014-Sep-12 05:27N 35°49' E 014°33'0 0.0
2014-Sep-12 04:27N 35°49' E 014°33'0 0.0
2014-Sep-12 03:21N 35°49' E 014°33'0 0.0
2014-Sep-12 02:33N 35°49' E 014°33'6 0.2
2014-Sep-11 01:25N 35°51' E 014°39'0 0.0
2014-Sep-11 00:31N 35°51' E 014°39'0 0.0
2014-Sep-10 23:31N 35°51' E 014°39'0 0.0
2014-Sep-10 22:31N 35°51' E 014°39'0 0.0
2014-Sep-10 21:31N 35°51' E 014°39'0 0.0
2014-Sep-10 20:31N 35°51' E 014°39'0 0.0
2014-Sep-10 19:31N 35°51' E 014°39'0 0.0
2014-Sep-10 18:31N 35°51' E 014°39'0 0.0
2014-Sep-10 17:31N 35°51' E 014°39'0 0.0
2014-Sep-10 16:31N 35°51' E 014°39'0 0.0
2014-Sep-10 15:31N 35°51' E 014°39'0 0.0
2014-Sep-10 14:31N 35°51' E 014°39'0 0.0
2014-Sep-10 13:31N 35°51' E 014°39'0 0.0
2014-Sep-10 12:31N 35°51' E 014°39'0 0.1
2014-Sep-10 11:31N 35°51' E 014°39'0 0.1
2014-Sep-10 10:31N 35°51' E 014°39'0 0.0
2014-Sep-10 09:28N 35°51' E 014°39'0 0.0
2014-Sep-10 08:31N 35°51' E 014°39'0 0.0
2014-Sep-10 07:31N 35°51' E 014°39'0 0.0
2014-Sep-10 06:34N 35°51' E 014°39'0 0.0
2014-Sep-10 05:33N 35°51' E 014°39'0 0.0
2014-Sep-10 04:33N 35°51' E 014°39'1 0.9
2014-Sep-10 03:33N 35°50' E 014°40'10 9.9
2014-Sep-10 02:33N 35°40' E 014°37'1212.2
2014-Sep-10 01:32N 35°28' E 014°40'1212.7
2014-Sep-10 00:33N 35°16' E 014°43'  
2014-Sep-07 14:10N 32°22' E 015°13'0 0.0
2014-Sep-06 16:34N 32°22' E 015°13'0 0.0
2014-Sep-06 14:33N 32°22' E 015°13'0 0.0
2014-Sep-06 13:24N 32°22' E 015°13'0 0.0
2014-Sep-05 17:18N 32°22' E 015°13'0 0.0
2014-Sep-04 21:23N 32°22' E 015°13'0 0.0
2014-Sep-04 20:32N 32°22' E 015°13'0 0.0
2014-Sep-04 18:32N 32°22' E 015°13'0 0.0
2014-Sep-04 14:14N 32°22' E 015°13'0 0.0
2014-Sep-04 13:32N 32°22' E 015°13'0 0.0
2014-Sep-04 11:17N 32°22' E 015°13'0 0.0
2014-Sep-04 10:32N 32°22' E 015°13'  
Track history (hours):
 
Tides and Currents Weather Stations Pressure Air Temp Water Temp Dewpoint Dewpoint Depression Visibility Wind Speed Wind Dir Waves Ship Positions

Stadt Schwerin

Last reported at 2014-Sep-13 01:05 UTC. Time now 2014-Sep-15 02:08 UTC.
Position N 36°40' E 012°40'.

Length 158 m; draft 9.6 m.

Type: Cargo ship. MMSI: 304010999.

Date/timePositionNaut miles runAvg speedWind from/ knotsBaromVisibWave heightAir tempDewpointWater temp
2014-Sep-13 01:05N 36°40' E 012°40'913.1
2014-Sep-13 00:23N 36°35' E 012°50'1113.3
2014-Sep-12 23:33N 36°29' E 013°01'1713.6
2014-Sep-12 22:20N 36°19' E 013°18'1013.4
2014-Sep-12 21:33N 36°14' E 013°29'1413.7
2014-Sep-12 20:33N 36°07' E 013°44'1414.0
2014-Sep-12 19:33N 35°58' E 013°58'1513.7
2014-Sep-12 18:26N 35°48' E 014°12'1213.4
2014-Sep-12 17:33N 35°41' E 014°24'10 8.6
2014-Sep-12 16:20N 35°49' E 014°32'0 0.4
2014-Sep-12 15:31N 35°49' E 014°33'0 0.0
2014-Sep-12 14:19N 35°49' E 014°33'0 0.0
2014-Sep-12 13:30N 35°49' E 014°33'0 0.0
2014-Sep-12 11:33N 35°49' E 014°33'0 0.0
2014-Sep-12 07:33N 35°49' E 014°33'0 0.0
2014-Sep-12 05:27N 35°49' E 014°33'0 0.0
2014-Sep-12 04:27N 35°49' E 014°33'0 0.0
2014-Sep-12 03:21N 35°49' E 014°33'0 0.0
2014-Sep-12 02:33N 35°49' E 014°33'6 0.2
2014-Sep-11 01:25N 35°51' E 014°39'0 0.0
2014-Sep-11 00:31N 35°51' E 014°39'0 0.0
2014-Sep-10 23:31N 35°51' E 014°39'0 0.0
2014-Sep-10 22:31N 35°51' E 014°39'0 0.0
2014-Sep-10 21:31N 35°51' E 014°39'0 0.0
2014-Sep-10 20:31N 35°51' E 014°39'0 0.0
2014-Sep-10 19:31N 35°51' E 014°39'0 0.0
2014-Sep-10 18:31N 35°51' E 014°39'0 0.0
2014-Sep-10 17:31N 35°51' E 014°39'0 0.0
2014-Sep-10 16:31N 35°51' E 014°39'0 0.0
2014-Sep-10 15:31N 35°51' E 014°39'0 0.0
2014-Sep-10 14:31N 35°51' E 014°39'0 0.0
2014-Sep-10 13:31N 35°51' E 014°39'0 0.0
2014-Sep-10 12:31N 35°51' E 014°39'0 0.1
2014-Sep-10 11:31N 35°51' E 014°39'0 0.1
2014-Sep-10 10:31N 35°51' E 014°39'0 0.0
2014-Sep-10 09:28N 35°51' E 014°39'0 0.0
2014-Sep-10 08:31N 35°51' E 014°39'0 0.0
2014-Sep-10 07:31N 35°51' E 014°39'0 0.0
2014-Sep-10 06:34N 35°51' E 014°39'0 0.0
2014-Sep-10 05:33N 35°51' E 014°39'0 0.0
2014-Sep-10 04:33N 35°51' E 014°39'1 0.9
2014-Sep-10 03:33N 35°50' E 014°40'10 9.9
2014-Sep-10 02:33N 35°40' E 014°37'1212.2
2014-Sep-10 01:32N 35°28' E 014°40'1212.7
2014-Sep-10 00:33N 35°16' E 014°43'  
2014-Sep-07 14:10N 32°22' E 015°13'0 0.0
2014-Sep-06 16:34N 32°22' E 015°13'0 0.0
2014-Sep-06 14:33N 32°22' E 015°13'0 0.0
2014-Sep-06 13:24N 32°22' E 015°13'0 0.0
2014-Sep-05 17:18N 32°22' E 015°13'0 0.0
2014-Sep-04 21:23N 32°22' E 015°13'0 0.0
2014-Sep-04 20:32N 32°22' E 015°13'0 0.0
2014-Sep-04 18:32N 32°22' E 015°13'0 0.0
2014-Sep-04 14:14N 32°22' E 015°13'0 0.0
2014-Sep-04 13:32N 32°22' E 015°13'0 0.0
2014-Sep-04 11:17N 32°22' E 015°13'0 0.0
2014-Sep-04 10:32N 32°22' E 015°13'  

Dump ship's entire track history